sensor_id;sensor_type;location;lat;lon;timestamp;P1;durP1;ratioP1;P2;durP2;ratioP2
6177;SDS011;3122;48.208;11.174;2023-12-20T00:00:55;6.80;;;4.73;;
6177;SDS011;3122;48.208;11.174;2023-12-20T00:05:56;5.33;;;3.90;;
6177;SDS011;3122;48.208;11.174;2023-12-20T00:10:57;5.40;;;4.07;;
6177;SDS011;3122;48.208;11.174;2023-12-20T00:15:58;6.37;;;4.10;;
6177;SDS011;3122;48.208;11.174;2023-12-20T00:20:58;6.80;;;3.97;;
6177;SDS011;3122;48.208;11.174;2023-12-20T00:25:59;4.20;;;3.80;;
6177;SDS011;3122;48.208;11.174;2023-12-20T00:30:59;3.67;;;3.03;;
6177;SDS011;3122;48.208;11.174;2023-12-20T00:36:00;3.30;;;3.00;;
6177;SDS011;3122;48.208;11.174;2023-12-20T00:41:01;3.70;;;3.33;;
6177;SDS011;3122;48.208;11.174;2023-12-20T00:46:02;3.30;;;3.00;;
6177;SDS011;3122;48.208;11.174;2023-12-20T00:51:03;3.50;;;2.97;;
6177;SDS011;3122;48.208;11.174;2023-12-20T00:56:04;3.33;;;2.70;;
6177;SDS011;3122;48.208;11.174;2023-12-20T01:01:04;4.13;;;2.83;;
6177;SDS011;3122;48.208;11.174;2023-12-20T01:06:05;3.40;;;3.10;;
6177;SDS011;3122;48.208;11.174;2023-12-20T01:11:06;4.13;;;3.13;;
6177;SDS011;3122;48.208;11.174;2023-12-20T01:16:06;4.00;;;2.90;;
6177;SDS011;3122;48.208;11.174;2023-12-20T01:21:10;4.00;;;3.37;;
6177;SDS011;3122;48.208;11.174;2023-12-20T01:26:11;3.80;;;3.10;;
6177;SDS011;3122;48.208;11.174;2023-12-20T01:31:12;9.30;;;3.03;;
6177;SDS011;3122;48.208;11.174;2023-12-20T01:36:12;2.57;;;2.37;;
6177;SDS011;3122;48.208;11.174;2023-12-20T01:41:13;2.97;;;2.10;;
6177;SDS011;3122;48.208;11.174;2023-12-20T01:46:13;4.07;;;3.10;;
6177;SDS011;3122;48.208;11.174;2023-12-20T01:51:15;6.00;;;3.10;;
6177;SDS011;3122;48.208;11.174;2023-12-20T01:56:16;2.40;;;2.20;;
6177;SDS011;3122;48.208;11.174;2023-12-20T02:01:17;1.73;;;1.60;;
6177;SDS011;3122;48.208;11.174;2023-12-20T02:06:18;1.83;;;1.70;;
6177;SDS011;3122;48.208;11.174;2023-12-20T02:11:20;1.97;;;1.67;;
6177;SDS011;3122;48.208;11.174;2023-12-20T02:16:21;1.73;;;1.63;;
6177;SDS011;3122;48.208;11.174;2023-12-20T02:21:25;2.50;;;1.90;;
6177;SDS011;3122;48.208;11.174;2023-12-20T02:26:32;1.67;;;1.57;;
6177;SDS011;3122;48.208;11.174;2023-12-20T02:31:33;2.10;;;1.80;;
6177;SDS011;3122;48.208;11.174;2023-12-20T02:36:34;2.33;;;1.83;;
6177;SDS011;3122;48.208;11.174;2023-12-20T02:41:34;2.07;;;1.90;;
6177;SDS011;3122;48.208;11.174;2023-12-20T02:46:35;2.13;;;1.93;;
6177;SDS011;3122;48.208;11.174;2023-12-20T02:51:36;1.60;;;1.50;;
6177;SDS011;3122;48.208;11.174;2023-12-20T02:56:38;1.67;;;1.57;;
6177;SDS011;3122;48.208;11.174;2023-12-20T03:01:43;1.60;;;1.50;;
6177;SDS011;3122;48.208;11.174;2023-12-20T03:06:45;3.83;;;1.60;;
6177;SDS011;3122;48.208;11.174;2023-12-20T03:11:45;2.20;;;1.87;;
6177;SDS011;3122;48.208;11.174;2023-12-20T03:16:49;2.30;;;2.10;;
6177;SDS011;3122;48.208;11.174;2023-12-20T03:21:50;2.03;;;1.90;;
6177;SDS011;3122;48.208;11.174;2023-12-20T03:26:50;2.17;;;1.97;;
6177;SDS011;3122;48.208;11.174;2023-12-20T03:31:51;2.53;;;2.40;;
6177;SDS011;3122;48.208;11.174;2023-12-20T03:36:51;2.20;;;2.00;;
6177;SDS011;3122;48.208;11.174;2023-12-20T03:41:52;2.90;;;2.33;;
6177;SDS011;3122;48.208;11.174;2023-12-20T03:46:52;2.70;;;2.50;;
6177;SDS011;3122;48.208;11.174;2023-12-20T03:51:53;2.60;;;2.40;;
6177;SDS011;3122;48.208;11.174;2023-12-20T03:56:53;2.70;;;2.17;;
6177;SDS011;3122;48.208;11.174;2023-12-20T04:01:54;2.23;;;2.10;;
6177;SDS011;3122;48.208;11.174;2023-12-20T04:06:54;4.57;;;2.60;;
6177;SDS011;3122;48.208;11.174;2023-12-20T04:11:55;3.07;;;2.80;;
6177;SDS011;3122;48.208;11.174;2023-12-20T04:16:56;3.30;;;3.10;;
6177;SDS011;3122;48.208;11.174;2023-12-20T04:21:56;3.40;;;3.10;;
6177;SDS011;3122;48.208;11.174;2023-12-20T04:26:57;3.83;;;3.50;;
6177;SDS011;3122;48.208;11.174;2023-12-20T04:31:57;4.13;;;3.63;;
6177;SDS011;3122;48.208;11.174;2023-12-20T04:36:58;4.57;;;3.43;;
6177;SDS011;3122;48.208;11.174;2023-12-20T04:41:58;4.47;;;3.83;;
6177;SDS011;3122;48.208;11.174;2023-12-20T04:46:59;4.60;;;3.77;;
6177;SDS011;3122;48.208;11.174;2023-12-20T04:52:00;4.40;;;4.00;;
6177;SDS011;3122;48.208;11.174;2023-12-20T04:57:00;5.70;;;4.47;;
6177;SDS011;3122;48.208;11.174;2023-12-20T05:02:01;6.60;;;4.83;;
6177;SDS011;3122;48.208;11.174;2023-12-20T05:07:01;8.20;;;5.27;;
6177;SDS011;3122;48.208;11.174;2023-12-20T05:12:04;11.23;;;5.50;;
6177;SDS011;3122;48.208;11.174;2023-12-20T05:17:06;8.60;;;5.70;;
6177;SDS011;3122;48.208;11.174;2023-12-20T05:22:06;8.30;;;5.80;;
6177;SDS011;3122;48.208;11.174;2023-12-20T05:27:07;8.40;;;5.60;;
6177;SDS011;3122;48.208;11.174;2023-12-20T05:32:08;7.23;;;5.37;;
6177;SDS011;3122;48.208;11.174;2023-12-20T05:37:08;6.03;;;4.97;;
6177;SDS011;3122;48.208;11.174;2023-12-20T05:42:09;6.13;;;4.97;;
6177;SDS011;3122;48.208;11.174;2023-12-20T05:47:09;8.60;;;5.20;;
6177;SDS011;3122;48.208;11.174;2023-12-20T05:52:10;6.03;;;4.73;;
6177;SDS011;3122;48.208;11.174;2023-12-20T05:57:10;6.20;;;4.87;;
6177;SDS011;3122;48.208;11.174;2023-12-20T06:02:11;7.37;;;5.43;;
6177;SDS011;3122;48.208;11.174;2023-12-20T06:07:11;9.43;;;5.57;;
6177;SDS011;3122;48.208;11.174;2023-12-20T06:12:13;6.37;;;5.10;;
6177;SDS011;3122;48.208;11.174;2023-12-20T06:17:13;8.00;;;6.40;;
6177;SDS011;3122;48.208;11.174;2023-12-20T06:22:14;6.60;;;5.07;;
6177;SDS011;3122;48.208;11.174;2023-12-20T06:27:18;11.57;;;5.90;;
6177;SDS011;3122;48.208;11.174;2023-12-20T06:32:19;6.40;;;5.50;;
6177;SDS011;3122;48.208;11.174;2023-12-20T06:37:19;5.03;;;4.53;;
6177;SDS011;3122;48.208;11.174;2023-12-20T06:42:20;7.37;;;4.50;;
6177;SDS011;3122;48.208;11.174;2023-12-20T06:47:20;6.10;;;4.90;;
6177;SDS011;3122;48.208;11.174;2023-12-20T06:52:21;5.80;;;4.80;;
6177;SDS011;3122;48.208;11.174;2023-12-20T06:57:22;5.53;;;4.03;;
6177;SDS011;3122;48.208;11.174;2023-12-20T07:02:23;5.03;;;3.97;;
6177;SDS011;3122;48.208;11.174;2023-12-20T07:07:24;3.80;;;3.23;;
6177;SDS011;3122;48.208;11.174;2023-12-20T07:12:24;4.90;;;3.57;;
6177;SDS011;3122;48.208;11.174;2023-12-20T07:17:25;3.83;;;3.20;;
6177;SDS011;3122;48.208;11.174;2023-12-20T07:22:25;3.17;;;2.87;;
6177;SDS011;3122;48.208;11.174;2023-12-20T07:27:26;3.93;;;3.27;;
6177;SDS011;3122;48.208;11.174;2023-12-20T07:32:27;4.93;;;3.00;;
6177;SDS011;3122;48.208;11.174;2023-12-20T07:37:28;3.20;;;2.90;;
6177;SDS011;3122;48.208;11.174;2023-12-20T07:42:28;4.97;;;4.20;;
6177;SDS011;3122;48.208;11.174;2023-12-20T07:47:32;3.00;;;2.80;;
6177;SDS011;3122;48.208;11.174;2023-12-20T07:52:33;3.70;;;3.37;;
6177;SDS011;3122;48.208;11.174;2023-12-20T07:57:34;3.60;;;3.00;;
6177;SDS011;3122;48.208;11.174;2023-12-20T08:02:35;4.93;;;3.37;;
6177;SDS011;3122;48.208;11.174;2023-12-20T08:07:35;4.40;;;3.30;;
6177;SDS011;3122;48.208;11.174;2023-12-20T08:12:36;4.90;;;3.40;;
6177;SDS011;3122;48.208;11.174;2023-12-20T08:17:37;4.30;;;3.33;;
6177;SDS011;3122;48.208;11.174;2023-12-20T08:22:38;3.27;;;2.73;;
6177;SDS011;3122;48.208;11.174;2023-12-20T08:27:42;3.07;;;2.80;;
6177;SDS011;3122;48.208;11.174;2023-12-20T08:32:42;3.93;;;3.43;;
6177;SDS011;3122;48.208;11.174;2023-12-20T08:37:43;4.23;;;3.10;;
6177;SDS011;3122;48.208;11.174;2023-12-20T08:42:43;3.50;;;3.20;;
6177;SDS011;3122;48.208;11.174;2023-12-20T08:47:44;6.83;;;4.97;;
6177;SDS011;3122;48.208;11.174;2023-12-20T08:52:45;3.60;;;3.30;;
6177;SDS011;3122;48.208;11.174;2023-12-20T08:57:45;3.97;;;3.53;;
6177;SDS011;3122;48.208;11.174;2023-12-20T09:02:46;4.47;;;3.80;;
6177;SDS011;3122;48.208;11.174;2023-12-20T09:07:47;6.57;;;5.00;;
6177;SDS011;3122;48.208;11.174;2023-12-20T09:12:50;7.67;;;6.50;;
6177;SDS011;3122;48.208;11.174;2023-12-20T09:17:51;6.10;;;5.50;;
6177;SDS011;3122;48.208;11.174;2023-12-20T09:22:53;7.50;;;5.40;;
6177;SDS011;3122;48.208;11.174;2023-12-20T09:27:53;7.90;;;6.00;;
6177;SDS011;3122;48.208;11.174;2023-12-20T09:32:54;11.80;;;7.83;;
6177;SDS011;3122;48.208;11.174;2023-12-20T09:37:55;10.63;;;6.60;;
6177;SDS011;3122;48.208;11.174;2023-12-20T09:42:57;12.90;;;7.27;;
6177;SDS011;3122;48.208;11.174;2023-12-20T09:48:02;6.37;;;4.80;;
6177;SDS011;3122;48.208;11.174;2023-12-20T09:53:04;7.10;;;5.50;;
6177;SDS011;3122;48.208;11.174;2023-12-20T09:58:09;6.97;;;5.10;;
6177;SDS011;3122;48.208;11.174;2023-12-20T10:03:09;7.90;;;5.67;;
6177;SDS011;3122;48.208;11.174;2023-12-20T10:08:11;4.60;;;4.20;;
6177;SDS011;3122;48.208;11.174;2023-12-20T10:13:11;4.60;;;4.13;;
6177;SDS011;3122;48.208;11.174;2023-12-20T10:18:13;7.40;;;4.57;;
6177;SDS011;3122;48.208;11.174;2023-12-20T10:23:14;4.37;;;3.77;;
6177;SDS011;3122;48.208;11.174;2023-12-20T10:28:15;4.20;;;3.73;;
6177;SDS011;3122;48.208;11.174;2023-12-20T10:33:24;4.90;;;3.93;;
6177;SDS011;3122;48.208;11.174;2023-12-20T10:38:25;4.90;;;3.80;;
6177;SDS011;3122;48.208;11.174;2023-12-20T10:43:27;6.07;;;4.47;;
6177;SDS011;3122;48.208;11.174;2023-12-20T10:48:29;4.83;;;3.83;;
6177;SDS011;3122;48.208;11.174;2023-12-20T10:53:32;4.07;;;3.50;;
6177;SDS011;3122;48.208;11.174;2023-12-20T10:58:33;4.30;;;3.90;;
6177;SDS011;3122;48.208;11.174;2023-12-20T11:03:36;4.00;;;3.20;;
6177;SDS011;3122;48.208;11.174;2023-12-20T11:13:53;3.70;;;3.40;;
6177;SDS011;3122;48.208;11.174;2023-12-20T11:19:05;3.50;;;3.00;;
6177;SDS011;3122;48.208;11.174;2023-12-20T11:24:06;4.00;;;3.60;;
6177;SDS011;3122;48.208;11.174;2023-12-20T11:34:33;3.33;;;3.03;;
6177;SDS011;3122;48.208;11.174;2023-12-20T11:39:35;3.00;;;2.70;;
6177;SDS011;3122;48.208;11.174;2023-12-20T11:44:37;2.70;;;2.50;;
6177;SDS011;3122;48.208;11.174;2023-12-20T11:49:37;3.43;;;2.60;;
6177;SDS011;3122;48.208;11.174;2023-12-20T11:54:38;2.47;;;2.27;;
6177;SDS011;3122;48.208;11.174;2023-12-20T11:59:38;2.50;;;2.30;;
6177;SDS011;3122;48.208;11.174;2023-12-20T12:04:42;2.30;;;2.20;;
6177;SDS011;3122;48.208;11.174;2023-12-20T12:09:43;2.37;;;2.17;;
6177;SDS011;3122;48.208;11.174;2023-12-20T12:14:44;2.03;;;1.90;;
6177;SDS011;3122;48.208;11.174;2023-12-20T12:19:45;2.70;;;2.50;;
6177;SDS011;3122;48.208;11.174;2023-12-20T12:24:46;3.37;;;2.57;;
6177;SDS011;3122;48.208;11.174;2023-12-20T12:30:00;2.90;;;2.70;;
6177;SDS011;3122;48.208;11.174;2023-12-20T12:35:03;2.63;;;2.43;;
6177;SDS011;3122;48.208;11.174;2023-12-20T12:40:15;3.20;;;2.37;;
6177;SDS011;3122;48.208;11.174;2023-12-20T12:45:17;3.63;;;2.80;;
6177;SDS011;3122;48.208;11.174;2023-12-20T12:50:17;2.70;;;2.50;;
6177;SDS011;3122;48.208;11.174;2023-12-20T12:55:18;2.77;;;2.33;;
6177;SDS011;3122;48.208;11.174;2023-12-20T13:00:18;5.90;;;2.80;;
6177;SDS011;3122;48.208;11.174;2023-12-20T13:05:19;3.70;;;2.77;;
6177;SDS011;3122;48.208;11.174;2023-12-20T13:10:20;4.30;;;2.47;;
6177;SDS011;3122;48.208;11.174;2023-12-20T13:15:20;4.27;;;2.37;;
6177;SDS011;3122;48.208;11.174;2023-12-20T13:20:21;5.57;;;3.50;;
6177;SDS011;3122;48.208;11.174;2023-12-20T13:25:22;9.63;;;4.23;;
6177;SDS011;3122;48.208;11.174;2023-12-20T13:30:23;2.60;;;2.40;;
6177;SDS011;3122;48.208;11.174;2023-12-20T13:35:24;3.83;;;2.67;;
6177;SDS011;3122;48.208;11.174;2023-12-20T13:40:24;2.77;;;2.47;;
6177;SDS011;3122;48.208;11.174;2023-12-20T13:45:25;3.90;;;2.80;;
6177;SDS011;3122;48.208;11.174;2023-12-20T13:50:25;5.87;;;4.20;;
6177;SDS011;3122;48.208;11.174;2023-12-20T13:55:27;3.17;;;2.87;;
6177;SDS011;3122;48.208;11.174;2023-12-20T14:00:28;3.93;;;3.27;;
6177;SDS011;3122;48.208;11.174;2023-12-20T14:05:28;4.13;;;3.37;;
6177;SDS011;3122;48.208;11.174;2023-12-20T14:10:29;6.60;;;3.20;;
6177;SDS011;3122;48.208;11.174;2023-12-20T14:15:30;5.40;;;2.60;;
6177;SDS011;3122;48.208;11.174;2023-12-20T14:20:36;3.67;;;2.40;;
6177;SDS011;3122;48.208;11.174;2023-12-20T14:25:36;2.60;;;2.40;;
6177;SDS011;3122;48.208;11.174;2023-12-20T14:30:37;2.80;;;2.20;;
6177;SDS011;3122;48.208;11.174;2023-12-20T14:35:38;3.50;;;2.10;;
6177;SDS011;3122;48.208;11.174;2023-12-20T14:40:38;4.03;;;2.27;;
6177;SDS011;3122;48.208;11.174;2023-12-20T14:45:39;3.30;;;2.40;;
6177;SDS011;3122;48.208;11.174;2023-12-20T14:50:39;2.53;;;2.30;;
6177;SDS011;3122;48.208;11.174;2023-12-20T14:55:43;5.30;;;2.50;;
6177;SDS011;3122;48.208;11.174;2023-12-20T15:00:44;5.10;;;2.40;;
6177;SDS011;3122;48.208;11.174;2023-12-20T15:05:45;3.47;;;2.53;;
6177;SDS011;3122;48.208;11.174;2023-12-20T15:10:47;3.40;;;2.37;;
6177;SDS011;3122;48.208;11.174;2023-12-20T15:15:48;2.57;;;2.37;;
6177;SDS011;3122;48.208;11.174;2023-12-20T15:20:48;13.13;;;3.57;;
6177;SDS011;3122;48.208;11.174;2023-12-20T15:25:50;9.63;;;4.20;;
6177;SDS011;3122;48.208;11.174;2023-12-20T15:30:50;6.37;;;4.20;;
6177;SDS011;3122;48.208;11.174;2023-12-20T15:35:51;8.40;;;4.37;;
6177;SDS011;3122;48.208;11.174;2023-12-20T15:40:51;3.17;;;2.50;;
6177;SDS011;3122;48.208;11.174;2023-12-20T15:45:52;4.17;;;2.60;;
6177;SDS011;3122;48.208;11.174;2023-12-20T15:50:52;6.00;;;3.90;;
6177;SDS011;3122;48.208;11.174;2023-12-20T15:55:53;6.00;;;4.50;;
6177;SDS011;3122;48.208;11.174;2023-12-20T16:00:53;8.70;;;4.70;;
6177;SDS011;3122;48.208;11.174;2023-12-20T16:05:54;4.87;;;3.20;;
6177;SDS011;3122;48.208;11.174;2023-12-20T16:10:55;2.40;;;2.10;;
6177;SDS011;3122;48.208;11.174;2023-12-20T16:15:55;2.73;;;1.93;;
6177;SDS011;3122;48.208;11.174;2023-12-20T16:20:56;4.37;;;2.63;;
6177;SDS011;3122;48.208;11.174;2023-12-20T16:25:57;2.17;;;1.87;;
6177;SDS011;3122;48.208;11.174;2023-12-20T16:30:57;3.07;;;2.17;;
6177;SDS011;3122;48.208;11.174;2023-12-20T16:35:58;3.30;;;2.60;;
6177;SDS011;3122;48.208;11.174;2023-12-20T16:40:59;4.60;;;2.50;;
6177;SDS011;3122;48.208;11.174;2023-12-20T16:46:00;3.73;;;2.50;;
6177;SDS011;3122;48.208;11.174;2023-12-20T16:51:00;4.10;;;2.63;;
6177;SDS011;3122;48.208;11.174;2023-12-20T16:56:01;4.60;;;3.30;;
6177;SDS011;3122;48.208;11.174;2023-12-20T17:01:02;4.50;;;3.20;;
6177;SDS011;3122;48.208;11.174;2023-12-20T17:06:02;3.83;;;2.40;;
6177;SDS011;3122;48.208;11.174;2023-12-20T17:11:05;3.63;;;2.50;;
6177;SDS011;3122;48.208;11.174;2023-12-20T17:16:06;3.90;;;2.57;;
6177;SDS011;3122;48.208;11.174;2023-12-20T17:21:06;3.13;;;2.27;;
6177;SDS011;3122;48.208;11.174;2023-12-20T17:26:08;4.40;;;1.70;;
6177;SDS011;3122;48.208;11.174;2023-12-20T17:31:08;2.57;;;2.10;;
6177;SDS011;3122;48.208;11.174;2023-12-20T17:36:09;7.63;;;2.37;;
6177;SDS011;3122;48.208;11.174;2023-12-20T17:41:14;2.63;;;1.90;;
6177;SDS011;3122;48.208;11.174;2023-12-20T17:46:15;4.73;;;2.90;;
6177;SDS011;3122;48.208;11.174;2023-12-20T17:51:16;6.50;;;2.23;;
6177;SDS011;3122;48.208;11.174;2023-12-20T17:56:16;2.80;;;1.70;;
6177;SDS011;3122;48.208;11.174;2023-12-20T18:01:17;3.90;;;1.87;;
6177;SDS011;3122;48.208;11.174;2023-12-20T18:06:18;3.10;;;1.70;;
6177;SDS011;3122;48.208;11.174;2023-12-20T18:11:18;3.20;;;1.90;;
6177;SDS011;3122;48.208;11.174;2023-12-20T18:16:19;2.00;;;1.67;;
6177;SDS011;3122;48.208;11.174;2023-12-20T18:21:19;4.53;;;1.80;;
6177;SDS011;3122;48.208;11.174;2023-12-20T18:26:20;1.50;;;1.40;;
6177;SDS011;3122;48.208;11.174;2023-12-20T18:31:21;2.53;;;1.67;;
6177;SDS011;3122;48.208;11.174;2023-12-20T18:36:21;3.60;;;1.73;;
6177;SDS011;3122;48.208;11.174;2023-12-20T18:41:23;2.30;;;1.40;;
6177;SDS011;3122;48.208;11.174;2023-12-20T18:46:23;5.50;;;2.23;;
6177;SDS011;3122;48.208;11.174;2023-12-20T18:51:24;4.30;;;1.97;;
6177;SDS011;3122;48.208;11.174;2023-12-20T18:56:25;3.93;;;1.60;;
6177;SDS011;3122;48.208;11.174;2023-12-20T19:01:25;1.43;;;1.33;;
6177;SDS011;3122;48.208;11.174;2023-12-20T19:06:26;4.97;;;2.50;;
6177;SDS011;3122;48.208;11.174;2023-12-20T19:11:26;4.83;;;2.63;;
6177;SDS011;3122;48.208;11.174;2023-12-20T19:16:29;4.20;;;2.17;;
6177;SDS011;3122;48.208;11.174;2023-12-20T19:21:30;3.00;;;2.30;;
6177;SDS011;3122;48.208;11.174;2023-12-20T19:26:31;4.40;;;2.43;;
6177;SDS011;3122;48.208;11.174;2023-12-20T19:31:31;2.90;;;2.50;;
6177;SDS011;3122;48.208;11.174;2023-12-20T19:36:32;5.93;;;2.40;;
6177;SDS011;3122;48.208;11.174;2023-12-20T19:41:32;3.13;;;2.57;;
6177;SDS011;3122;48.208;11.174;2023-12-20T19:46:33;4.00;;;2.47;;
6177;SDS011;3122;48.208;11.174;2023-12-20T19:51:33;3.10;;;2.80;;
6177;SDS011;3122;48.208;11.174;2023-12-20T19:56:34;5.00;;;3.10;;
6177;SDS011;3122;48.208;11.174;2023-12-20T20:01:34;3.53;;;3.23;;
6177;SDS011;3122;48.208;11.174;2023-12-20T20:06:39;4.63;;;3.27;;
6177;SDS011;3122;48.208;11.174;2023-12-20T20:11:39;4.90;;;2.80;;
6177;SDS011;3122;48.208;11.174;2023-12-20T20:16:41;4.17;;;3.00;;
6177;SDS011;3122;48.208;11.174;2023-12-20T20:21:43;5.07;;;3.80;;
6177;SDS011;3122;48.208;11.174;2023-12-20T20:26:43;4.50;;;2.97;;
6177;SDS011;3122;48.208;11.174;2023-12-20T20:31:44;5.20;;;3.50;;
6177;SDS011;3122;48.208;11.174;2023-12-20T20:36:44;2.33;;;2.13;;
6177;SDS011;3122;48.208;11.174;2023-12-20T20:41:45;3.33;;;2.40;;
6177;SDS011;3122;48.208;11.174;2023-12-20T20:46:46;5.50;;;2.43;;
6177;SDS011;3122;48.208;11.174;2023-12-20T20:51:46;3.70;;;1.90;;
6177;SDS011;3122;48.208;11.174;2023-12-20T20:56:47;2.60;;;2.40;;
6177;SDS011;3122;48.208;11.174;2023-12-20T21:01:47;2.63;;;1.77;;
6177;SDS011;3122;48.208;11.174;2023-12-20T21:06:48;2.53;;;1.93;;
6177;SDS011;3122;48.208;11.174;2023-12-20T21:11:48;5.13;;;2.20;;
6177;SDS011;3122;48.208;11.174;2023-12-20T21:16:49;2.17;;;1.67;;
6177;SDS011;3122;48.208;11.174;2023-12-20T21:21:50;4.00;;;2.93;;
6177;SDS011;3122;48.208;11.174;2023-12-20T21:26:50;6.43;;;1.77;;
6177;SDS011;3122;48.208;11.174;2023-12-20T21:31:51;3.87;;;2.30;;
6177;SDS011;3122;48.208;11.174;2023-12-20T21:36:51;2.53;;;1.90;;
6177;SDS011;3122;48.208;11.174;2023-12-20T21:41:53;1.67;;;1.47;;
6177;SDS011;3122;48.208;11.174;2023-12-20T21:46:53;5.23;;;2.17;;
6177;SDS011;3122;48.208;11.174;2023-12-20T21:51:54;7.13;;;2.63;;
6177;SDS011;3122;48.208;11.174;2023-12-20T21:56:54;4.17;;;1.70;;
6177;SDS011;3122;48.208;11.174;2023-12-20T22:01:56;5.00;;;2.10;;
6177;SDS011;3122;48.208;11.174;2023-12-20T22:06:57;3.23;;;2.33;;
6177;SDS011;3122;48.208;11.174;2023-12-20T22:11:57;4.83;;;1.67;;
6177;SDS011;3122;48.208;11.174;2023-12-20T22:16:58;1.83;;;1.60;;
6177;SDS011;3122;48.208;11.174;2023-12-20T22:21:58;4.07;;;2.00;;
6177;SDS011;3122;48.208;11.174;2023-12-20T22:26:59;4.13;;;2.20;;
6177;SDS011;3122;48.208;11.174;2023-12-20T22:32:00;1.80;;;1.70;;
6177;SDS011;3122;48.208;11.174;2023-12-20T22:37:01;2.70;;;2.50;;
6177;SDS011;3122;48.208;11.174;2023-12-20T22:42:03;3.33;;;2.30;;
6177;SDS011;3122;48.208;11.174;2023-12-20T22:47:04;1.90;;;1.80;;
6177;SDS011;3122;48.208;11.174;2023-12-20T22:52:05;2.00;;;1.80;;
6177;SDS011;3122;48.208;11.174;2023-12-20T22:57:05;3.10;;;1.87;;
6177;SDS011;3122;48.208;11.174;2023-12-20T23:02:06;2.70;;;1.80;;
6177;SDS011;3122;48.208;11.174;2023-12-20T23:07:08;1.50;;;1.40;;
6177;SDS011;3122;48.208;11.174;2023-12-20T23:12:09;1.80;;;1.20;;
6177;SDS011;3122;48.208;11.174;2023-12-20T23:17:09;2.27;;;1.57;;
6177;SDS011;3122;48.208;11.174;2023-12-20T23:22:10;3.20;;;1.33;;
6177;SDS011;3122;48.208;11.174;2023-12-20T23:27:10;5.43;;;1.50;;
6177;SDS011;3122;48.208;11.174;2023-12-20T23:32:11;1.97;;;1.30;;
6177;SDS011;3122;48.208;11.174;2023-12-20T23:37:11;1.83;;;1.10;;
6177;SDS011;3122;48.208;11.174;2023-12-20T23:42:12;3.90;;;1.20;;
6177;SDS011;3122;48.208;11.174;2023-12-20T23:47:17;1.50;;;1.40;;
6177;SDS011;3122;48.208;11.174;2023-12-20T23:52:18;1.60;;;1.40;;
6177;SDS011;3122;48.208;11.174;2023-12-20T23:57:18;1.83;;;1.70;;
